sensor_id;sensor_type;location;lat;lon;timestamp;pressure;altitude;pressure_sealevel;temperature;humidity
7930;BME280;4010;42.698;23.124;2023-03-13T00:01:25;118349.16;;;-140.64;80.58
7930;BME280;4010;42.698;23.124;2023-03-13T00:03:52;118349.16;;;-140.64;80.92
7930;BME280;4010;42.698;23.124;2023-03-13T00:06:21;118349.16;;;-140.64;80.74
7930;BME280;4010;42.698;23.124;2023-03-13T00:08:49;118349.16;;;-140.64;80.46
7930;BME280;4010;42.698;23.124;2023-03-13T00:11:16;118349.16;;;-140.64;80.27
7930;BME280;4010;42.698;23.124;2023-03-13T00:13:43;118349.16;;;-140.64;80.34
7930;BME280;4010;42.698;23.124;2023-03-13T00:16:11;118349.16;;;-140.64;79.85
7930;BME280;4010;42.698;23.124;2023-03-13T00:18:40;118349.16;;;-140.64;80.43
7930;BME280;4010;42.698;23.124;2023-03-13T00:21:10;118349.16;;;-140.64;80.16
7930;BME280;4010;42.698;23.124;2023-03-13T00:23:39;118349.16;;;-140.64;79.28
7930;BME280;4010;42.698;23.124;2023-03-13T00:26:07;118349.16;;;-140.64;78.74
7930;BME280;4010;42.698;23.124;2023-03-13T00:28:35;118349.16;;;-140.64;78.80
7930;BME280;4010;42.698;23.124;2023-03-13T00:31:03;118349.16;;;-140.64;78.60
7930;BME280;4010;42.698;23.124;2023-03-13T00:33:31;118349.16;;;-140.64;79.16
7930;BME280;4010;42.698;23.124;2023-03-13T00:35:58;118349.16;;;-140.64;78.95
7930;BME280;4010;42.698;23.124;2023-03-13T00:38:27;118349.16;;;-140.64;78.03
7930;BME280;4010;42.698;23.124;2023-03-13T00:41:03;118349.16;;;-140.64;77.46
7930;BME280;4010;42.698;23.124;2023-03-13T00:43:30;118349.16;;;-140.64;77.28
7930;BME280;4010;42.698;23.124;2023-03-13T00:45:57;118349.16;;;-140.64;77.61
7930;BME280;4010;42.698;23.124;2023-03-13T00:48:24;118349.16;;;-140.64;77.23
7930;BME280;4010;42.698;23.124;2023-03-13T00:50:51;118349.16;;;-140.64;77.93
7930;BME280;4010;42.698;23.124;2023-03-13T00:53:17;118349.16;;;-140.64;77.70
7930;BME280;4010;42.698;23.124;2023-03-13T00:55:52;118349.16;;;-140.64;77.94
7930;BME280;4010;42.698;23.124;2023-03-13T00:58:20;118349.16;;;-140.64;78.54
7930;BME280;4010;42.698;23.124;2023-03-13T01:00:47;118349.16;;;-140.64;78.38
7930;BME280;4010;42.698;23.124;2023-03-13T01:03:14;118349.16;;;-140.64;78.19
7930;BME280;4010;42.698;23.124;2023-03-13T01:05:41;118349.16;;;-140.64;78.52
7930;BME280;4010;42.698;23.124;2023-03-13T01:08:08;118349.16;;;-140.64;79.58
7930;BME280;4010;42.698;23.124;2023-03-13T01:10:35;118349.16;;;-140.64;79.71
7930;BME280;4010;42.698;23.124;2023-03-13T01:13:02;118349.16;;;-140.64;79.69
7930;BME280;4010;42.698;23.124;2023-03-13T01:15:34;118349.16;;;-140.64;79.85
7930;BME280;4010;42.698;23.124;2023-03-13T01:18:01;118349.16;;;-140.64;80.20
7930;BME280;4010;42.698;23.124;2023-03-13T01:20:29;118349.16;;;-140.64;80.85
7930;BME280;4010;42.698;23.124;2023-03-13T01:22:56;118349.16;;;-140.64;81.77
7930;BME280;4010;42.698;23.124;2023-03-13T01:25:22;118349.16;;;-140.64;81.66
7930;BME280;4010;42.698;23.124;2023-03-13T01:27:49;118349.16;;;-140.64;81.62
7930;BME280;4010;42.698;23.124;2023-03-13T01:30:16;118349.16;;;-140.64;81.83
7930;BME280;4010;42.698;23.124;2023-03-13T01:32:44;118349.16;;;-140.64;82.24
7930;BME280;4010;42.698;23.124;2023-03-13T01:35:11;118349.16;;;-140.64;82.59
7930;BME280;4010;42.698;23.124;2023-03-13T01:37:38;118349.16;;;-140.64;82.76
7930;BME280;4010;42.698;23.124;2023-03-13T01:40:05;118349.16;;;-140.64;83.31
7930;BME280;4010;42.698;23.124;2023-03-13T01:42:50;118349.16;;;-140.64;83.78
7930;BME280;4010;42.698;23.124;2023-03-13T01:45:55;118349.16;;;-140.64;83.91
7930;BME280;4010;42.698;23.124;2023-03-13T01:48:27;118349.16;;;-140.64;83.76
7930;BME280;4010;42.698;23.124;2023-03-13T01:50:58;118349.16;;;-140.64;83.71
7930;BME280;4010;42.698;23.124;2023-03-13T01:53:27;118349.16;;;-140.64;83.79
7930;BME280;4010;42.698;23.124;2023-03-13T01:55:56;118349.16;;;-140.64;84.07
7930;BME280;4010;42.698;23.124;2023-03-13T01:58:24;118349.16;;;-140.64;83.49
7930;BME280;4010;42.698;23.124;2023-03-13T02:00:51;118349.16;;;-140.64;83.45
7930;BME280;4010;42.698;23.124;2023-03-13T02:03:20;118349.16;;;-140.64;83.57
7930;BME280;4010;42.698;23.124;2023-03-13T02:05:49;118349.16;;;-140.64;83.18
7930;BME280;4010;42.698;23.124;2023-03-13T02:08:18;118349.16;;;-140.64;82.82
7930;BME280;4010;42.698;23.124;2023-03-13T02:10:50;118349.16;;;-140.64;82.78
7930;BME280;4010;42.698;23.124;2023-03-13T02:13:19;118349.16;;;-140.64;82.55
7930;BME280;4010;42.698;23.124;2023-03-13T02:15:46;118349.16;;;-140.64;83.04
7930;BME280;4010;42.698;23.124;2023-03-13T02:18:14;118349.16;;;-140.64;82.53
7930;BME280;4010;42.698;23.124;2023-03-13T02:20:41;118349.16;;;-140.64;82.12
7930;BME280;4010;42.698;23.124;2023-03-13T02:23:14;118349.16;;;-140.64;81.74
7930;BME280;4010;42.698;23.124;2023-03-13T02:25:45;118349.16;;;-140.64;81.83
7930;BME280;4010;42.698;23.124;2023-03-13T02:28:16;118349.16;;;-140.64;81.82
7930;BME280;4010;42.698;23.124;2023-03-13T02:30:46;118349.16;;;-140.64;82.20
7930;BME280;4010;42.698;23.124;2023-03-13T02:33:15;118349.16;;;-140.64;82.58
7930;BME280;4010;42.698;23.124;2023-03-13T02:35:44;118349.16;;;-140.64;83.07
7930;BME280;4010;42.698;23.124;2023-03-13T02:38:14;118349.16;;;-140.64;83.31
7930;BME280;4010;42.698;23.124;2023-03-13T02:40:45;118349.16;;;-140.64;83.32
7930;BME280;4010;42.698;23.124;2023-03-13T02:43:16;118349.16;;;-140.64;83.27
7930;BME280;4010;42.698;23.124;2023-03-13T02:45:59;118349.16;;;-140.64;83.69
7930;BME280;4010;42.698;23.124;2023-03-13T02:48:31;118349.16;;;-140.64;84.00
7930;BME280;4010;42.698;23.124;2023-03-13T02:50:59;118349.16;;;-140.64;84.00
7930;BME280;4010;42.698;23.124;2023-03-13T02:53:26;118349.16;;;-140.64;84.07
7930;BME280;4010;42.698;23.124;2023-03-13T02:55:55;118349.16;;;-140.64;84.40
7930;BME280;4010;42.698;23.124;2023-03-13T02:58:23;118349.16;;;-140.64;84.27
7930;BME280;4010;42.698;23.124;2023-03-13T03:00:50;118349.16;;;-140.64;84.48
7930;BME280;4010;42.698;23.124;2023-03-13T03:03:16;118349.16;;;-140.64;83.85
7930;BME280;4010;42.698;23.124;2023-03-13T03:05:43;118349.16;;;-140.64;83.79
7930;BME280;4010;42.698;23.124;2023-03-13T03:08:10;118349.16;;;-140.64;83.53
7930;BME280;4010;42.698;23.124;2023-03-13T03:10:36;118349.16;;;-140.64;83.18
7930;BME280;4010;42.698;23.124;2023-03-13T03:13:05;118349.16;;;-140.64;83.73
7930;BME280;4010;42.698;23.124;2023-03-13T03:15:31;118349.16;;;-140.64;83.99
7930;BME280;4010;42.698;23.124;2023-03-13T03:17:58;118349.16;;;-140.64;83.69
7930;BME280;4010;42.698;23.124;2023-03-13T03:20:25;118349.16;;;-140.64;83.53
7930;BME280;4010;42.698;23.124;2023-03-13T03:22:51;118349.16;;;-140.64;83.74
7930;BME280;4010;42.698;23.124;2023-03-13T03:25:18;118349.16;;;-140.64;84.16
7930;BME280;4010;42.698;23.124;2023-03-13T03:27:45;118349.16;;;-140.64;84.69
7930;BME280;4010;42.698;23.124;2023-03-13T03:30:14;118349.16;;;-140.64;84.75
7930;BME280;4010;42.698;23.124;2023-03-13T03:32:40;118349.16;;;-140.64;84.92
7930;BME280;4010;42.698;23.124;2023-03-13T03:35:07;118349.16;;;-140.64;84.87
7930;BME280;4010;42.698;23.124;2023-03-13T03:37:34;118349.16;;;-140.64;84.70
7930;BME280;4010;42.698;23.124;2023-03-13T03:40:01;118349.16;;;-140.64;84.28
7930;BME280;4010;42.698;23.124;2023-03-13T03:42:30;118349.16;;;-140.64;84.23
7930;BME280;4010;42.698;23.124;2023-03-13T03:44:56;118349.16;;;-140.64;84.11
7930;BME280;4010;42.698;23.124;2023-03-13T03:47:24;118349.16;;;-140.64;84.88
7930;BME280;4010;42.698;23.124;2023-03-13T03:49:51;118349.16;;;-140.64;84.89
7930;BME280;4010;42.698;23.124;2023-03-13T03:52:18;118349.16;;;-140.64;84.41
7930;BME280;4010;42.698;23.124;2023-03-13T03:54:44;118349.16;;;-140.64;84.58
7930;BME280;4010;42.698;23.124;2023-03-13T03:57:11;118349.16;;;-140.64;84.39
7930;BME280;4010;42.698;23.124;2023-03-13T03:59:38;118349.16;;;-140.64;84.45
7930;BME280;4010;42.698;23.124;2023-03-13T04:02:04;118349.16;;;-140.64;84.07
7930;BME280;4010;42.698;23.124;2023-03-13T04:04:33;118349.16;;;-140.64;84.91
7930;BME280;4010;42.698;23.124;2023-03-13T04:06:59;118349.16;;;-140.64;85.06
7930;BME280;4010;42.698;23.124;2023-03-13T04:09:26;118349.16;;;-140.64;84.97
7930;BME280;4010;42.698;23.124;2023-03-13T04:11:53;118349.16;;;-140.64;85.70
7930;BME280;4010;42.698;23.124;2023-03-13T04:14:19;118349.16;;;-140.64;85.52
7930;BME280;4010;42.698;23.124;2023-03-13T04:16:46;118349.16;;;-140.64;85.58
7930;BME280;4010;42.698;23.124;2023-03-13T04:19:13;118349.16;;;-140.64;85.43
7930;BME280;4010;42.698;23.124;2023-03-13T04:21:41;118349.16;;;-140.64;85.38
7930;BME280;4010;42.698;23.124;2023-03-13T04:24:08;118349.16;;;-140.64;85.95
7930;BME280;4010;42.698;23.124;2023-03-13T04:26:34;118349.16;;;-140.64;86.08
7930;BME280;4010;42.698;23.124;2023-03-13T04:29:01;118349.16;;;-140.64;86.67
7930;BME280;4010;42.698;23.124;2023-03-13T04:31:28;118349.16;;;-140.64;86.76
7930;BME280;4010;42.698;23.124;2023-03-13T04:33:54;118349.16;;;-140.64;87.22
7930;BME280;4010;42.698;23.124;2023-03-13T04:36:21;118349.16;;;-140.64;87.39
7930;BME280;4010;42.698;23.124;2023-03-13T04:38:49;118349.16;;;-140.64;87.06
7930;BME280;4010;42.698;23.124;2023-03-13T04:41:16;118349.16;;;-140.64;86.81
7930;BME280;4010;42.698;23.124;2023-03-13T04:43:42;118349.16;;;-140.64;87.10
7930;BME280;4010;42.698;23.124;2023-03-13T04:46:09;118349.16;;;-140.64;86.68
7930;BME280;4010;42.698;23.124;2023-03-13T04:48:36;118349.16;;;-140.64;86.96
7930;BME280;4010;42.698;23.124;2023-03-13T04:51:03;118349.16;;;-140.64;87.05
7930;BME280;4010;42.698;23.124;2023-03-13T04:53:30;118349.16;;;-140.64;87.28
7930;BME280;4010;42.698;23.124;2023-03-13T04:55:58;118349.16;;;-140.64;87.43
7930;BME280;4010;42.698;23.124;2023-03-13T04:58:24;118349.16;;;-140.64;87.41
7930;BME280;4010;42.698;23.124;2023-03-13T05:00:52;118349.16;;;-140.64;87.18
7930;BME280;4010;42.698;23.124;2023-03-13T05:03:19;118349.16;;;-140.64;87.37
7930;BME280;4010;42.698;23.124;2023-03-13T05:05:46;118349.16;;;-140.64;87.58
7930;BME280;4010;42.698;23.124;2023-03-13T05:08:12;118349.16;;;-140.64;87.32
7930;BME280;4010;42.698;23.124;2023-03-13T05:10:40;118349.16;;;-140.64;87.24
7930;BME280;4010;42.698;23.124;2023-03-13T05:13:08;118349.16;;;-140.64;87.48
7930;BME280;4010;42.698;23.124;2023-03-13T05:15:35;118349.16;;;-140.64;87.34
7930;BME280;4010;42.698;23.124;2023-03-13T05:18:02;118349.16;;;-140.64;87.15
7930;BME280;4010;42.698;23.124;2023-03-13T05:20:29;118349.16;;;-140.64;88.96
7930;BME280;4010;42.698;23.124;2023-03-13T05:22:55;118349.16;;;-140.64;87.96
7930;BME280;4010;42.698;23.124;2023-03-13T05:25:22;118349.16;;;-140.64;82.60
7930;BME280;4010;42.698;23.124;2023-03-13T05:27:49;118349.16;;;-140.64;75.38
7930;BME280;4010;42.698;23.124;2023-03-13T05:30:17;118349.16;;;-140.64;68.99
7930;BME280;4010;42.698;23.124;2023-03-13T05:32:44;118349.16;;;-140.64;66.32
7930;BME280;4010;42.698;23.124;2023-03-13T05:35:11;118349.16;;;-140.64;65.12
7930;BME280;4010;42.698;23.124;2023-03-13T05:37:38;118349.16;;;-140.64;64.71
7930;BME280;4010;42.698;23.124;2023-03-13T05:40:06;118349.16;;;-140.64;63.79
7930;BME280;4010;42.698;23.124;2023-03-13T05:42:33;118349.16;;;-140.64;63.82
7930;BME280;4010;42.698;23.124;2023-03-13T05:45:00;118349.16;;;-140.64;65.13
7930;BME280;4010;42.698;23.124;2023-03-13T05:47:28;118349.16;;;-140.64;65.54
7930;BME280;4010;42.698;23.124;2023-03-13T05:49:54;118349.16;;;-140.64;67.17
7930;BME280;4010;42.698;23.124;2023-03-13T05:52:21;118349.16;;;-140.64;67.92
7930;BME280;4010;42.698;23.124;2023-03-13T05:54:48;118349.16;;;-140.64;68.44
7930;BME280;4010;42.698;23.124;2023-03-13T05:57:17;118349.16;;;-140.64;69.22
7930;BME280;4010;42.698;23.124;2023-03-13T05:59:44;118349.16;;;-140.64;69.18
7930;BME280;4010;42.698;23.124;2023-03-13T06:02:11;118349.16;;;-140.64;69.58
7930;BME280;4010;42.698;23.124;2023-03-13T06:04:39;118349.16;;;-140.64;71.32
7930;BME280;4010;42.698;23.124;2023-03-13T06:07:06;118349.16;;;-140.64;70.07
7930;BME280;4010;42.698;23.124;2023-03-13T06:09:32;118349.16;;;-140.64;69.64
7930;BME280;4010;42.698;23.124;2023-03-13T06:11:59;118349.16;;;-140.64;66.28
7930;BME280;4010;42.698;23.124;2023-03-13T06:14:26;118349.16;;;-140.64;68.30
7930;BME280;4010;42.698;23.124;2023-03-13T06:16:53;118349.16;;;-140.64;69.50
7930;BME280;4010;42.698;23.124;2023-03-13T06:19:20;118349.16;;;-140.64;69.68
7930;BME280;4010;42.698;23.124;2023-03-13T06:21:50;118349.16;;;-140.64;65.86
7930;BME280;4010;42.698;23.124;2023-03-13T06:24:17;118349.16;;;-140.64;65.43
7930;BME280;4010;42.698;23.124;2023-03-13T06:26:44;118349.16;;;-140.64;64.26
7930;BME280;4010;42.698;23.124;2023-03-13T06:29:13;118349.16;;;-140.64;64.40
7930;BME280;4010;42.698;23.124;2023-03-13T06:31:40;118349.16;;;-140.64;62.41
7930;BME280;4010;42.698;23.124;2023-03-13T06:34:07;118349.16;;;-140.64;62.94
7930;BME280;4010;42.698;23.124;2023-03-13T06:36:34;118349.16;;;-140.64;62.52
7930;BME280;4010;42.698;23.124;2023-03-13T06:39:03;118349.16;;;-140.64;61.09
7930;BME280;4010;42.698;23.124;2023-03-13T06:41:29;118349.16;;;-140.64;62.10
7930;BME280;4010;42.698;23.124;2023-03-13T06:43:57;118349.16;;;-140.64;61.57
7930;BME280;4010;42.698;23.124;2023-03-13T06:46:24;118349.16;;;-140.64;62.30
7930;BME280;4010;42.698;23.124;2023-03-13T06:48:51;118349.16;;;-140.64;64.05
7930;BME280;4010;42.698;23.124;2023-03-13T06:51:20;118349.16;;;-140.64;63.03
7930;BME280;4010;42.698;23.124;2023-03-13T06:53:47;118349.16;;;-140.64;62.57
7930;BME280;4010;42.698;23.124;2023-03-13T06:56:18;118349.16;;;-140.64;61.74
7930;BME280;4010;42.698;23.124;2023-03-13T06:58:46;118349.16;;;-140.64;60.25
7930;BME280;4010;42.698;23.124;2023-03-13T07:01:14;118349.16;;;-140.64;60.69
7930;BME280;4010;42.698;23.124;2023-03-13T07:03:42;118349.16;;;-140.64;60.83
7930;BME280;4010;42.698;23.124;2023-03-13T07:06:10;118349.16;;;-140.64;58.80
7930;BME280;4010;42.698;23.124;2023-03-13T07:08:38;118349.16;;;-140.64;60.49
7930;BME280;4010;42.698;23.124;2023-03-13T07:11:07;118349.16;;;-140.64;59.22
7930;BME280;4010;42.698;23.124;2023-03-13T07:13:36;118349.16;;;-140.64;58.98
7930;BME280;4010;42.698;23.124;2023-03-13T07:16:04;118349.16;;;-140.64;60.05
7930;BME280;4010;42.698;23.124;2023-03-13T07:18:32;118349.16;;;-140.64;59.88
7930;BME280;4010;42.698;23.124;2023-03-13T07:21:01;118349.16;;;-140.64;61.08
7930;BME280;4010;42.698;23.124;2023-03-13T07:23:31;118349.16;;;-140.64;62.76
7930;BME280;4010;42.698;23.124;2023-03-13T07:26:00;118349.16;;;-140.64;60.48
7930;BME280;4010;42.698;23.124;2023-03-13T07:28:27;118349.16;;;-140.64;58.68
7930;BME280;4010;42.698;23.124;2023-03-13T07:31:02;118349.16;;;-140.64;59.18
7930;BME280;4010;42.698;23.124;2023-03-13T07:33:29;118349.16;;;-140.64;58.42
7930;BME280;4010;42.698;23.124;2023-03-13T07:35:56;118349.16;;;-140.64;57.54
7930;BME280;4010;42.698;23.124;2023-03-13T07:38:23;118349.16;;;-140.64;56.81
7930;BME280;4010;42.698;23.124;2023-03-13T07:40:51;118349.16;;;-140.64;55.57
7930;BME280;4010;42.698;23.124;2023-03-13T07:43:18;118349.16;;;-140.64;57.39
7930;BME280;4010;42.698;23.124;2023-03-13T07:45:52;118349.16;;;-140.64;57.02
7930;BME280;4010;42.698;23.124;2023-03-13T07:48:22;118349.16;;;-140.64;57.44
7930;BME280;4010;42.698;23.124;2023-03-13T07:50:49;118349.16;;;-140.64;56.87
7930;BME280;4010;42.698;23.124;2023-03-13T07:53:16;118349.16;;;-140.64;56.46
7930;BME280;4010;42.698;23.124;2023-03-13T07:55:55;118349.16;;;-140.64;57.79
7930;BME280;4010;42.698;23.124;2023-03-13T07:58:23;118349.16;;;-140.64;58.81
7930;BME280;4010;42.698;23.124;2023-03-13T08:00:51;118349.16;;;-140.64;57.84
7930;BME280;4010;42.698;23.124;2023-03-13T08:03:17;118349.16;;;-140.64;57.93
7930;BME280;4010;42.698;23.124;2023-03-13T08:05:46;118349.16;;;-140.64;59.01
7930;BME280;4010;42.698;23.124;2023-03-13T08:08:13;118349.16;;;-140.64;57.57
7930;BME280;4010;42.698;23.124;2023-03-13T08:10:39;118349.16;;;-140.64;56.48
7930;BME280;4010;42.698;23.124;2023-03-13T08:13:06;118349.16;;;-140.64;57.58
7930;BME280;4010;42.698;23.124;2023-03-13T08:15:33;118349.16;;;-140.64;58.45
7930;BME280;4010;42.698;23.124;2023-03-13T08:17:59;118349.16;;;-140.64;58.71
7930;BME280;4010;42.698;23.124;2023-03-13T08:20:26;118349.16;;;-140.64;58.45
7930;BME280;4010;42.698;23.124;2023-03-13T08:22:55;118349.16;;;-140.64;56.47
7930;BME280;4010;42.698;23.124;2023-03-13T08:25:22;118349.16;;;-140.64;56.45
7930;BME280;4010;42.698;23.124;2023-03-13T08:27:49;118349.16;;;-140.64;56.24
7930;BME280;4010;42.698;23.124;2023-03-13T08:30:16;118349.16;;;-140.64;55.25
7930;BME280;4010;42.698;23.124;2023-03-13T08:32:43;118349.16;;;-140.64;57.21
7930;BME280;4010;42.698;23.124;2023-03-13T08:35:09;118349.16;;;-140.64;55.44
7930;BME280;4010;42.698;23.124;2023-03-13T08:37:36;118349.16;;;-140.64;55.85
7930;BME280;4010;42.698;23.124;2023-03-13T08:40:06;118349.16;;;-140.64;55.67
7930;BME280;4010;42.698;23.124;2023-03-13T08:42:36;118349.16;;;-140.64;56.17
7930;BME280;4010;42.698;23.124;2023-03-13T08:45:05;118349.16;;;-140.64;56.68
7930;BME280;4010;42.698;23.124;2023-03-13T08:47:32;118349.16;;;-140.64;55.43
7930;BME280;4010;42.698;23.124;2023-03-13T08:49:59;118349.16;;;-140.64;56.37
7930;BME280;4010;42.698;23.124;2023-03-13T08:52:25;118349.16;;;-140.64;54.88
7930;BME280;4010;42.698;23.124;2023-03-13T08:54:52;118349.16;;;-140.64;57.65
7930;BME280;4010;42.698;23.124;2023-03-13T08:57:20;118349.16;;;-140.64;58.31
7930;BME280;4010;42.698;23.124;2023-03-13T08:59:47;118349.16;;;-140.64;54.42
7930;BME280;4010;42.698;23.124;2023-03-13T09:02:15;118349.16;;;-140.64;56.41
7930;BME280;4010;42.698;23.124;2023-03-13T09:04:45;118349.16;;;-140.64;56.14
7930;BME280;4010;42.698;23.124;2023-03-13T09:07:12;118349.16;;;-140.64;53.68
7930;BME280;4010;42.698;23.124;2023-03-13T09:09:39;118349.16;;;-140.64;52.86
7930;BME280;4010;42.698;23.124;2023-03-13T09:12:06;118349.16;;;-140.64;53.91
7930;BME280;4010;42.698;23.124;2023-03-13T09:14:35;118349.16;;;-140.64;52.85
7930;BME280;4010;42.698;23.124;2023-03-13T09:17:01;118349.16;;;-140.64;52.88
7930;BME280;4010;42.698;23.124;2023-03-13T09:19:28;118349.16;;;-140.64;52.63
7930;BME280;4010;42.698;23.124;2023-03-13T09:21:55;118349.16;;;-140.64;52.42
7930;BME280;4010;42.698;23.124;2023-03-13T09:24:22;118349.16;;;-140.64;54.83
7930;BME280;4010;42.698;23.124;2023-03-13T09:26:49;118349.16;;;-140.64;54.42
7930;BME280;4010;42.698;23.124;2023-03-13T09:29:16;118349.16;;;-140.64;52.02
7930;BME280;4010;42.698;23.124;2023-03-13T09:31:44;118349.16;;;-140.64;52.68
7930;BME280;4010;42.698;23.124;2023-03-13T09:34:10;118349.16;;;-140.64;53.09
7930;BME280;4010;42.698;23.124;2023-03-13T09:36:37;118349.16;;;-140.64;52.73
7930;BME280;4010;42.698;23.124;2023-03-13T09:39:05;118349.16;;;-140.64;54.02
7930;BME280;4010;42.698;23.124;2023-03-13T09:41:35;118349.16;;;-140.64;53.13
7930;BME280;4010;42.698;23.124;2023-03-13T09:44:10;118349.16;;;-140.64;54.74
7930;BME280;4010;42.698;23.124;2023-03-13T09:46:42;118349.16;;;-140.64;53.79
7930;BME280;4010;42.698;23.124;2023-03-13T09:49:15;118349.16;;;-140.64;53.16
7930;BME280;4010;42.698;23.124;2023-03-13T09:51:46;118349.16;;;-140.64;52.96
7930;BME280;4010;42.698;23.124;2023-03-13T09:54:21;118349.16;;;-140.64;51.96
7930;BME280;4010;42.698;23.124;2023-03-13T09:56:54;118349.16;;;-140.64;53.23
7930;BME280;4010;42.698;23.124;2023-03-13T09:59:28;118349.16;;;-140.64;51.74
7930;BME280;4010;42.698;23.124;2023-03-13T10:01:57;118349.16;;;-140.64;51.82
7930;BME280;4010;42.698;23.124;2023-03-13T10:04:34;118349.16;;;-140.64;51.74
7930;BME280;4010;42.698;23.124;2023-03-13T10:07:03;118349.16;;;-140.64;51.85
7930;BME280;4010;42.698;23.124;2023-03-13T10:09:32;118349.16;;;-140.64;52.41
7930;BME280;4010;42.698;23.124;2023-03-13T10:12:06;118349.16;;;-140.64;53.05
7930;BME280;4010;42.698;23.124;2023-03-13T10:14:42;118349.16;;;-140.64;51.33
7930;BME280;4010;42.698;23.124;2023-03-13T10:17:16;118349.16;;;-140.64;50.81
7930;BME280;4010;42.698;23.124;2023-03-13T10:19:53;118349.16;;;-140.64;52.07
7930;BME280;4010;42.698;23.124;2023-03-13T10:22:23;118349.16;;;-140.64;50.71
7930;BME280;4010;42.698;23.124;2023-03-13T10:24:54;118349.16;;;-140.64;49.81
7930;BME280;4010;42.698;23.124;2023-03-13T10:27:21;118349.16;;;-140.64;50.00
7930;BME280;4010;42.698;23.124;2023-03-13T10:29:48;118349.16;;;-140.64;52.26
7930;BME280;4010;42.698;23.124;2023-03-13T10:32:16;118349.16;;;-140.64;49.68
7930;BME280;4010;42.698;23.124;2023-03-13T10:34:52;118349.16;;;-140.64;50.49
7930;BME280;4010;42.698;23.124;2023-03-13T10:37:23;118349.16;;;-140.64;49.48
7930;BME280;4010;42.698;23.124;2023-03-13T10:39:50;118349.16;;;-140.64;52.68
7930;BME280;4010;42.698;23.124;2023-03-13T10:42:20;118349.16;;;-140.64;51.46
7930;BME280;4010;42.698;23.124;2023-03-13T10:44:48;118349.16;;;-140.64;49.09
7930;BME280;4010;42.698;23.124;2023-03-13T10:47:15;118349.16;;;-140.64;49.49
7930;BME280;4010;42.698;23.124;2023-03-13T10:49:47;118349.16;;;-140.64;52.28
7930;BME280;4010;42.698;23.124;2023-03-13T10:52:29;118349.16;;;-140.64;48.31
7930;BME280;4010;42.698;23.124;2023-03-13T10:54:59;118349.16;;;-140.64;48.09
7930;BME280;4010;42.698;23.124;2023-03-13T10:57:28;118349.16;;;-140.64;48.11
7930;BME280;4010;42.698;23.124;2023-03-13T10:59:56;118349.16;;;-140.64;49.17
7930;BME280;4010;42.698;23.124;2023-03-13T11:02:27;118349.16;;;-140.64;48.17
7930;BME280;4010;42.698;23.124;2023-03-13T11:04:57;118349.16;;;-140.64;47.69
7930;BME280;4010;42.698;23.124;2023-03-13T11:07:34;118349.16;;;-140.64;49.55
7930;BME280;4010;42.698;23.124;2023-03-13T11:10:16;118349.16;;;-140.64;46.99
7930;BME280;4010;42.698;23.124;2023-03-13T11:12:44;118349.16;;;-140.64;45.85
7930;BME280;4010;42.698;23.124;2023-03-13T11:15:14;118349.16;;;-140.64;46.47
7930;BME280;4010;42.698;23.124;2023-03-13T11:17:41;118349.16;;;-140.64;46.31
7930;BME280;4010;42.698;23.124;2023-03-13T11:20:16;118349.16;;;-140.64;46.94
7930;BME280;4010;42.698;23.124;2023-03-13T11:22:55;118349.16;;;-140.64;47.76
7930;BME280;4010;42.698;23.124;2023-03-13T11:25:30;118349.16;;;-140.64;46.39
7930;BME280;4010;42.698;23.124;2023-03-13T11:28:10;118349.16;;;-140.64;47.98
7930;BME280;4010;42.698;23.124;2023-03-13T11:30:52;118349.16;;;-140.64;45.67
7930;BME280;4010;42.698;23.124;2023-03-13T11:33:37;118349.16;;;-140.64;46.14
7930;BME280;4010;42.698;23.124;2023-03-13T11:36:13;118349.16;;;-140.64;46.38
7930;BME280;4010;42.698;23.124;2023-03-13T11:38:44;118349.16;;;-140.64;46.28
7930;BME280;4010;42.698;23.124;2023-03-13T11:41:24;118349.16;;;-140.64;46.49
7930;BME280;4010;42.698;23.124;2023-03-13T11:44:07;118349.16;;;-140.64;46.00
7930;BME280;4010;42.698;23.124;2023-03-13T11:46:42;118349.16;;;-140.64;45.87
7930;BME280;4010;42.698;23.124;2023-03-13T11:52:11;118349.16;;;-140.64;45.00
7930;BME280;4010;42.698;23.124;2023-03-13T11:57:34;118349.16;;;-140.64;45.67
7930;BME280;4010;42.698;23.124;2023-03-13T12:00:20;118349.16;;;-140.64;44.71
7930;BME280;4010;42.698;23.124;2023-03-13T12:02:51;118349.16;;;-140.64;44.95
7930;BME280;4010;42.698;23.124;2023-03-13T12:05:20;118349.16;;;-140.64;45.60
7930;BME280;4010;42.698;23.124;2023-03-13T12:07:52;118349.16;;;-140.64;45.80
7930;BME280;4010;42.698;23.124;2023-03-13T12:10:25;118349.16;;;-140.64;46.21
7930;BME280;4010;42.698;23.124;2023-03-13T12:13:01;118349.16;;;-140.64;44.83
7930;BME280;4010;42.698;23.124;2023-03-13T12:15:31;118349.16;;;-140.64;43.63
7930;BME280;4010;42.698;23.124;2023-03-13T12:18:04;118349.16;;;-140.64;44.62
7930;BME280;4010;42.698;23.124;2023-03-13T12:20:39;118349.16;;;-140.64;43.50
7930;BME280;4010;42.698;23.124;2023-03-13T12:23:17;118349.16;;;-140.64;43.03
7930;BME280;4010;42.698;23.124;2023-03-13T12:25:49;118349.16;;;-140.64;43.72
7930;BME280;4010;42.698;23.124;2023-03-13T12:28:28;118349.16;;;-140.64;43.28
7930;BME280;4010;42.698;23.124;2023-03-13T12:31:01;118349.16;;;-140.64;43.75
7930;BME280;4010;42.698;23.124;2023-03-13T12:33:33;118349.16;;;-140.64;44.70
7930;BME280;4010;42.698;23.124;2023-03-13T12:36:07;118349.16;;;-140.64;44.15
7930;BME280;4010;42.698;23.124;2023-03-13T12:38:38;118349.16;;;-140.64;43.06
7930;BME280;4010;42.698;23.124;2023-03-13T12:41:17;118349.16;;;-140.64;43.18
7930;BME280;4010;42.698;23.124;2023-03-13T12:43:48;118349.16;;;-140.64;43.21
7930;BME280;4010;42.698;23.124;2023-03-13T12:46:36;118349.16;;;-140.64;44.44
7930;BME280;4010;42.698;23.124;2023-03-13T12:49:40;118349.16;;;-140.64;42.99
7930;BME280;4010;42.698;23.124;2023-03-13T12:55:48;118349.16;;;-140.64;43.36
7930;BME280;4010;42.698;23.124;2023-03-13T12:58:38;118349.16;;;-140.64;44.06
7930;BME280;4010;42.698;23.124;2023-03-13T13:01:13;118349.16;;;-140.64;43.85